createdAt,value
2019-06-10T00:01:53.795Z,5.00
2019-06-10T00:04:23.991Z,5.00
2019-06-10T00:06:54.165Z,6.50
2019-06-10T00:09:24.372Z,6.00
2019-06-10T00:11:54.561Z,6.50
2019-06-10T00:14:24.789Z,6.00
2019-06-10T00:16:54.984Z,6.50
2019-06-10T00:19:25.172Z,7.00
2019-06-10T00:21:55.331Z,6.00
2019-06-10T00:24:25.578Z,7.00
2019-06-10T00:26:55.821Z,6.00
2019-06-10T00:29:26.032Z,5.80
2019-06-10T00:31:56.220Z,6.25
2019-06-10T00:34:26.401Z,3.00
2019-06-10T00:36:56.600Z,6.75
2019-06-10T00:39:26.769Z,6.75
2019-06-10T00:41:56.984Z,5.00
2019-06-10T00:44:27.145Z,6.00
2019-06-10T00:46:58.412Z,7.00
2019-06-10T00:49:28.593Z,7.25
2019-06-10T00:52:01.241Z,6.00
2019-06-10T00:54:31.272Z,6.50
2019-06-10T00:57:02.895Z,5.75
2019-06-10T00:59:33.451Z,5.00
2019-06-10T01:02:05.021Z,8.25
2019-06-10T01:04:35.557Z,4.00
2019-06-10T01:07:06.537Z,5.00
2019-06-10T01:09:36.844Z,6.00
2019-06-10T01:12:07.030Z,6.00
2019-06-10T01:14:37.232Z,7.00
2019-06-10T01:17:07.568Z,5.25
2019-06-10T01:19:41.372Z,5.00
2019-06-10T01:22:13.801Z,7.00
2019-06-10T01:24:43.762Z,7.00
2019-06-10T01:27:15.085Z,7.00
2019-06-10T01:29:45.420Z,6.00
2019-06-10T01:32:15.588Z,7.00
2019-06-10T01:34:45.804Z,5.75
2019-06-10T01:37:16.075Z,8.00
2019-06-10T01:39:46.540Z,7.00
2019-06-10T01:42:17.204Z,6.00
2019-06-10T01:44:50.545Z,6.80
2019-06-10T01:47:21.588Z,8.25
2019-06-10T01:49:51.932Z,6.50
2019-06-10T01:52:22.155Z,5.25
2019-06-10T01:54:52.328Z,6.00
2019-06-10T01:57:22.510Z,5.80
2019-06-10T01:59:52.698Z,6.00
2019-06-10T02:02:24.454Z,6.25
2019-06-10T02:04:54.979Z,6.00
2019-06-10T02:07:25.447Z,7.25
2019-06-10T02:09:55.621Z,2.50
2019-06-10T02:12:25.817Z,8.25
2019-06-10T02:14:56.067Z,6.00
2019-06-10T02:17:26.300Z,6.00
2019-06-10T02:19:56.534Z,7.40
2019-06-10T02:22:26.761Z,6.75
2019-06-10T02:24:56.969Z,8.00
2019-06-10T02:27:27.141Z,6.50
2019-06-10T02:29:57.361Z,5.75
2019-06-10T02:32:32.899Z,8.40
2019-06-10T02:35:13.101Z,8.00
2019-06-10T02:37:37.586Z,7.25
2019-06-10T02:40:04.530Z,6.00
2019-06-10T02:42:38.976Z,8.00
2019-06-10T02:45:09.407Z,9.25
2019-06-10T02:47:39.576Z,8.75
2019-06-10T02:50:14.208Z,10.00
2019-06-10T02:52:44.328Z,8.25
2019-06-10T02:55:16.339Z,6.75
2019-06-10T02:57:46.365Z,5.25
2019-06-10T03:00:24.808Z,7.50
2019-06-10T03:02:49.156Z,8.20
2019-06-10T03:05:21.464Z,7.00
2019-06-10T03:07:53.274Z,7.50
2019-06-10T03:10:29.926Z,8.50
2019-06-10T03:12:55.015Z,7.25
2019-06-10T03:15:26.800Z,7.50
2019-06-10T03:17:57.120Z,7.60
2019-06-10T03:20:28.423Z,9.25
2019-06-10T03:22:58.769Z,8.50
2019-06-10T03:25:28.948Z,9.40
2019-06-10T03:27:59.140Z,9.25
2019-06-10T03:30:44.942Z,7.75
2019-06-10T03:33:04.666Z,8.75
2019-06-10T03:35:33.171Z,10.00
2019-06-10T03:38:03.359Z,9.75
2019-06-10T03:40:33.591Z,12.75
2019-06-10T03:43:03.795Z,11.25
2019-06-10T03:45:34.038Z,10.25
2019-06-10T03:48:04.234Z,10.20
2019-06-10T03:50:34.461Z,11.00
2019-06-10T03:53:04.708Z,11.75
2019-06-10T03:55:34.887Z,9.50
2019-06-10T03:58:05.089Z,10.25
2019-06-10T04:00:37.037Z,8.40
2019-06-10T04:03:07.204Z,11.75
2019-06-10T04:05:37.439Z,11.00
2019-06-10T04:08:07.662Z,11.50
2019-06-10T04:10:37.907Z,10.25
2019-06-10T04:13:08.098Z,11.50
2019-06-10T04:15:38.314Z,10.50
2019-06-10T04:18:08.541Z,10.25
2019-06-10T04:20:39.808Z,7.25
2019-06-10T04:23:12.007Z,11.50
2019-06-10T04:25:43.486Z,11.00
2019-06-10T04:28:13.698Z,8.25
2019-06-10T04:30:43.866Z,12.00
2019-06-10T04:33:14.078Z,17.00
2019-06-10T04:35:44.282Z,9.75
2019-06-10T04:38:14.457Z,6.40
2019-06-10T04:40:44.654Z,6.75
2019-06-10T04:43:14.842Z,7.25
2019-06-10T04:45:46.098Z,9.00
2019-06-10T04:48:16.309Z,10.00
2019-06-10T04:50:46.639Z,7.60
2019-06-10T04:53:16.854Z,7.75
2019-06-10T04:55:47.051Z,8.00
2019-06-10T04:58:17.211Z,7.50
2019-06-10T05:00:47.404Z,8.50
2019-06-10T05:03:18.863Z,8.00
2019-06-10T05:05:52.410Z,8.00
2019-06-10T05:08:23.950Z,7.25
2019-06-10T05:10:53.876Z,4.80
2019-06-10T05:13:25.578Z,8.25
2019-06-10T05:15:55.937Z,8.25
2019-06-10T05:18:27.606Z,7.00
2019-06-10T05:20:58.791Z,7.00
2019-06-10T05:23:29.967Z,5.00
2019-06-10T05:26:02.461Z,7.50
2019-06-10T05:28:34.172Z,8.50
2019-06-10T05:31:04.026Z,8.00
2019-06-10T05:33:34.206Z,11.00
2019-06-10T05:36:04.405Z,9.75
2019-06-10T05:38:35.358Z,9.25
2019-06-10T05:41:05.764Z,10.00
2019-06-10T05:43:35.952Z,10.00
2019-06-10T05:46:06.180Z,10.00
2019-06-10T05:48:36.358Z,10.00
2019-06-10T05:51:07.063Z,9.50
2019-06-10T05:53:37.363Z,8.25
2019-06-10T05:56:07.532Z,10.25
2019-06-10T05:58:37.744Z,12.00
2019-06-10T06:01:07.944Z,9.25
2019-06-10T06:03:38.150Z,10.20
2019-06-10T06:06:08.347Z,8.75
2019-06-10T06:08:38.528Z,11.00
2019-06-10T06:11:08.736Z,11.00
2019-06-10T06:13:38.951Z,10.50
2019-06-10T06:16:09.139Z,11.20
2019-06-10T06:18:39.397Z,11.25
2019-06-10T06:21:22.575Z,11.25
2019-06-10T06:23:43.698Z,10.20
2019-06-10T06:26:16.820Z,8.60
2019-06-10T06:28:47.114Z,10.00
2019-06-10T06:31:17.318Z,9.50
2019-06-10T06:33:47.474Z,8.75
2019-06-10T06:36:17.720Z,10.00
2019-06-10T06:38:47.979Z,10.75
2019-06-10T06:41:18.490Z,12.00
2019-06-10T06:43:48.877Z,10.00
2019-06-10T06:46:19.335Z,10.50
2019-06-10T06:48:52.939Z,12.00
2019-06-10T06:51:35.956Z,11.40
2019-06-10T06:53:56.235Z,12.40
2019-06-10T06:56:26.225Z,14.20
2019-06-10T06:58:56.743Z,12.00
2019-06-10T07:01:26.931Z,9.50
2019-06-10T07:03:57.113Z,12.25
2019-06-10T07:06:27.313Z,9.00
2019-06-10T07:09:04.045Z,10.20
2019-06-10T07:11:32.915Z,11.00
2019-06-10T07:14:03.687Z,9.00
2019-06-10T07:16:34.513Z,9.40
2019-06-10T07:19:05.375Z,9.00
2019-06-10T07:21:55.775Z,8.80
2019-06-10T07:24:07.450Z,8.75
2019-06-10T07:26:42.656Z,9.75
2019-06-10T07:29:09.570Z,7.00
2019-06-10T07:31:41.787Z,7.50
2019-06-10T07:34:12.928Z,9.75
2019-06-10T07:36:45.219Z,6.00
2019-06-10T07:39:15.817Z,5.25
2019-06-10T07:41:47.921Z,5.25
2019-06-10T07:44:18.385Z,6.00
2019-06-10T07:46:48.625Z,6.00
2019-06-10T07:49:18.816Z,5.00
2019-06-10T07:51:52.321Z,7.00
2019-06-10T07:54:23.577Z,5.50
2019-06-10T07:56:54.014Z,4.00
2019-06-10T07:59:24.398Z,3.00
2019-06-10T08:01:55.373Z,4.50
2019-06-10T08:04:25.692Z,2.60
2019-06-10T08:06:55.883Z,4.00
2019-06-10T08:09:26.041Z,5.25
2019-06-10T08:11:56.264Z,4.50
2019-06-10T08:14:26.507Z,3.75
2019-06-10T08:16:56.687Z,6.00
2019-06-10T08:19:34.979Z,7.20
2019-06-10T08:21:58.794Z,6.00
2019-06-10T08:24:28.999Z,4.00
2019-06-10T08:26:59.225Z,5.00
2019-06-10T08:29:32.839Z,6.00
2019-06-10T08:32:03.258Z,4.00
2019-06-10T08:34:33.712Z,5.00
2019-06-10T08:37:04.593Z,5.25
2019-06-10T08:39:36.261Z,5.00
2019-06-10T08:42:06.823Z,4.00
2019-06-10T08:44:38.846Z,6.00
2019-06-10T08:47:09.114Z,5.40
2019-06-10T08:49:39.272Z,5.50
2019-06-10T08:52:09.472Z,5.00
2019-06-10T08:54:41.192Z,4.75
2019-06-10T08:57:12.634Z,3.75
2019-06-10T08:59:46.628Z,4.00
2019-06-10T09:02:15.224Z,3.75
2019-06-10T09:04:48.796Z,4.00
2019-06-10T09:07:17.322Z,3.75
2019-06-10T09:09:50.219Z,4.00
2019-06-10T09:12:30.281Z,3.50
2019-06-10T09:14:53.125Z,5.50
2019-06-10T09:17:23.625Z,4.00
2019-06-10T09:19:54.199Z,4.50
2019-06-10T09:22:24.694Z,4.75
2019-06-10T09:24:56.310Z,5.50
2019-06-10T09:27:27.114Z,4.75
2019-06-10T09:29:57.579Z,4.25
2019-06-10T09:32:28.270Z,5.00
2019-06-10T09:34:58.437Z,4.00
2019-06-10T09:37:28.657Z,5.50
2019-06-10T09:39:59.856Z,4.75
2019-06-10T09:42:33.306Z,4.75
2019-06-10T09:45:03.935Z,4.50
2019-06-10T09:47:35.834Z,5.25
2019-06-10T09:50:06.600Z,4.00
2019-06-10T09:52:36.929Z,4.25
2019-06-10T09:55:07.555Z,3.25
2019-06-10T09:57:37.906Z,4.50
2019-06-10T10:00:12.303Z,4.50
2019-06-10T10:02:47.696Z,4.00
2019-06-10T10:05:15.740Z,5.75
2019-06-10T10:07:50.754Z,4.50
2019-06-10T10:10:24.019Z,5.00
2019-06-10T10:12:55.819Z,4.00
2019-06-10T10:15:30.793Z,4.00
2019-06-10T10:17:58.511Z,3.50
2019-06-10T10:20:28.700Z,3.80
2019-06-10T10:22:58.903Z,3.00
2019-06-10T10:25:29.265Z,4.00
2019-06-10T10:28:03.182Z,5.50
2019-06-10T10:30:35.214Z,6.00
2019-06-10T10:33:05.438Z,3.00
2019-06-10T10:35:35.607Z,2.00
2019-06-10T10:38:05.804Z,3.00
2019-06-10T10:40:35.970Z,5.00
2019-06-10T10:43:23.376Z,4.00
2019-06-10T10:45:38.098Z,2.50
2019-06-10T10:48:08.666Z,3.50
2019-06-10T10:50:38.960Z,5.40
2019-06-10T10:53:12.689Z,3.50
2019-06-10T10:55:43.451Z,0.75
2019-06-10T10:58:13.923Z,3.00
2019-06-10T11:00:47.850Z,2.00
2019-06-10T11:03:17.573Z,39.75
2019-06-10T11:05:49.606Z,6.20
2019-06-10T11:08:19.631Z,2.00
2019-06-10T11:10:52.532Z,3.00
2019-06-10T11:13:22.351Z,3.00
2019-06-10T11:15:55.382Z,1.00
2019-06-10T11:18:24.629Z,4.75
2019-06-10T11:20:55.313Z,4.00
2019-06-10T11:23:25.537Z,1.25
2019-06-10T11:25:57.189Z,3.00
2019-06-10T11:28:32.119Z,1.75
2019-06-10T11:31:03.816Z,1.00
2019-06-10T11:33:34.349Z,2.50
2019-06-10T11:36:04.729Z,3.00
2019-06-10T11:38:36.011Z,2.75
2019-06-10T11:41:06.301Z,3.25
2019-06-10T11:43:36.491Z,4.00
2019-06-10T11:46:07.984Z,2.75
2019-06-10T11:48:38.492Z,3.60
2019-06-10T11:51:08.698Z,1.50
2019-06-10T11:53:38.881Z,3.00
2019-06-10T11:56:09.131Z,2.50
2019-06-10T11:58:39.314Z,2.00
2019-06-10T12:01:12.173Z,3.00
2019-06-10T12:03:43.013Z,3.00
2019-06-10T12:06:13.983Z,2.00
2019-06-10T12:08:46.605Z,3.50
2019-06-10T12:11:16.795Z,3.25
2019-06-10T12:13:46.995Z,3.00
2019-06-10T12:18:51.663Z,4.50
2019-06-10T12:21:23.539Z,3.50
2019-06-10T12:23:57.699Z,5.00
2019-06-10T12:26:25.974Z,5.00
2019-06-10T12:28:58.699Z,3.75
2019-06-10T12:31:28.087Z,2.75
2019-06-10T12:34:00.407Z,4.00
2019-06-10T12:36:30.535Z,4.25
2019-06-10T12:39:10.316Z,4.40
2019-06-10T12:41:35.570Z,5.00
2019-06-10T12:44:06.122Z,3.00
2019-06-10T12:46:36.944Z,5.25
2019-06-10T12:49:08.666Z,5.25
2019-06-10T12:51:40.961Z,4.00
2019-06-10T12:54:13.167Z,5.00
2019-06-10T12:56:43.363Z,4.00
2019-06-10T12:59:13.859Z,3.00
2019-06-10T13:01:45.168Z,4.00
2019-06-10T13:04:16.428Z,4.50
2019-06-10T13:06:47.873Z,4.25
2019-06-10T13:09:18.984Z,3.25
2019-06-10T13:11:49.213Z,2.25
2019-06-10T13:14:21.941Z,3.25
2019-06-10T13:16:52.667Z,4.00
2019-06-10T13:19:23.242Z,3.00
2019-06-10T13:21:55.090Z,3.50
2019-06-10T13:24:26.359Z,3.25
2019-06-10T13:26:57.261Z,3.00
2019-06-10T13:29:27.469Z,3.25
2019-06-10T13:31:58.047Z,4.60
2019-06-10T13:34:28.329Z,4.00
2019-06-10T13:37:01.284Z,4.00
2019-06-10T13:39:32.556Z,2.50
2019-06-10T13:42:06.183Z,3.50
2019-06-10T13:44:34.810Z,2.50
2019-06-10T13:47:08.158Z,5.00
2019-06-10T13:49:37.356Z,3.60
2019-06-10T13:52:11.851Z,4.50
2019-06-10T13:54:42.001Z,5.00
2019-06-10T13:57:13.713Z,4.25
2019-06-10T13:59:46.330Z,3.25
2019-06-10T14:02:18.370Z,4.00
2019-06-10T14:04:48.574Z,4.00
2019-06-10T14:07:23.208Z,4.75
2019-06-10T14:09:53.381Z,4.00
2019-06-10T14:12:24.546Z,4.75
2019-06-10T14:14:55.401Z,2.25
2019-06-10T14:17:25.590Z,4.00
2019-06-10T14:19:55.777Z,6.00
2019-06-10T14:22:26.720Z,4.75
2019-06-10T14:24:56.931Z,3.25
2019-06-10T14:27:27.113Z,3.75
2019-06-10T14:29:58.640Z,3.00
2019-06-10T14:32:32.930Z,3.00
2019-06-10T14:35:09.337Z,5.00
2019-06-10T14:37:39.496Z,7.00
2019-06-10T14:40:13.217Z,5.00
2019-06-10T14:42:42.910Z,3.00
2019-06-10T14:45:16.560Z,6.00
2019-06-10T14:47:47.127Z,4.00
2019-06-10T14:50:18.129Z,3.00
2019-06-10T14:52:49.964Z,4.00
2019-06-10T14:55:20.160Z,5.25
2019-06-10T14:57:50.319Z,3.25
2019-06-10T15:00:23.589Z,5.75
2019-06-10T15:02:54.142Z,6.00
2019-06-10T15:05:25.524Z,5.25
2019-06-10T15:07:56.026Z,4.75
2019-06-10T15:10:26.442Z,3.00
2019-06-10T15:12:58.287Z,5.00
2019-06-10T15:15:32.906Z,4.00
2019-06-10T15:18:02.971Z,3.50
2019-06-10T15:20:33.312Z,0.00
2019-06-10T15:23:03.833Z,5.00
2019-06-10T15:25:49.233Z,5.50
2019-06-10T15:28:08.110Z,4.20
2019-06-10T15:30:39.354Z,5.50
2019-06-10T15:33:12.957Z,5.25
2019-06-10T15:35:44.229Z,5.25
2019-06-10T15:38:16.804Z,4.00
2019-06-10T15:40:48.778Z,5.40
2019-06-10T15:43:20.779Z,6.00
2019-06-10T15:45:53.766Z,7.50
2019-06-10T15:48:26.492Z,6.25
2019-06-10T15:50:56.676Z,6.00
2019-06-10T15:53:27.169Z,6.80
2019-06-10T15:56:22.475Z,5.00
2019-06-10T15:58:29.271Z,5.00
2019-06-10T16:00:59.451Z,4.00
2019-06-10T16:03:29.652Z,5.00
2019-06-10T16:06:02.913Z,6.00
2019-06-10T16:08:35.087Z,5.00
2019-06-10T16:11:06.116Z,4.25
2019-06-10T16:13:36.465Z,4.75
2019-06-10T16:16:06.693Z,5.00
2019-06-10T16:18:37.124Z,5.00
2019-06-10T16:21:12.222Z,4.00
2019-06-10T16:23:43.008Z,5.00
2019-06-10T16:26:16.249Z,5.50
2019-06-10T16:28:46.501Z,5.75
2019-06-10T16:31:16.790Z,5.00
2019-06-10T16:33:49.423Z,6.25
2019-06-10T16:36:21.161Z,7.25
2019-06-10T16:38:52.990Z,4.25
2019-06-10T16:41:26.448Z,6.00
2019-06-10T16:43:57.418Z,5.60
2019-06-10T16:46:28.969Z,4.50
2019-06-10T16:48:59.325Z,5.00
2019-06-10T16:51:29.953Z,6.50
2019-06-10T16:54:02.283Z,6.00
2019-06-10T16:56:33.563Z,6.00
2019-06-10T16:59:04.924Z,6.25
2019-06-10T17:01:38.195Z,5.50
2019-06-10T17:04:08.401Z,5.80
2019-06-10T17:06:38.833Z,6.25
2019-06-10T17:09:09.238Z,7.25
2019-06-10T17:11:39.644Z,8.00
2019-06-10T17:14:12.385Z,5.50
2019-06-10T17:16:41.971Z,8.00
2019-06-10T17:19:14.256Z,5.00
2019-06-10T17:21:44.073Z,5.00
2019-06-10T17:24:14.645Z,6.50
2019-06-10T17:26:45.053Z,6.00
2019-06-10T17:29:15.258Z,6.00
2019-06-10T17:31:45.472Z,6.00
2019-06-10T17:34:16.640Z,5.60
2019-06-10T17:36:46.873Z,6.25
2019-06-10T17:39:18.188Z,5.25
2019-06-10T17:41:48.427Z,3.25
2019-06-10T17:44:18.647Z,6.80
2019-06-10T17:46:48.830Z,7.00
2019-06-10T17:49:22.609Z,4.25
2019-06-10T17:51:52.562Z,6.00
2019-06-10T17:54:24.086Z,7.00
2019-06-10T17:56:55.011Z,5.00
2019-06-10T17:59:25.311Z,6.25
2019-06-10T18:01:58.065Z,8.75
2019-06-10T18:04:29.336Z,7.25
2019-06-10T18:07:02.127Z,6.75
2019-06-10T18:09:34.680Z,6.75
2019-06-10T18:12:03.417Z,6.25
2019-06-10T18:14:36.296Z,2.00
2019-06-10T18:17:07.085Z,5.25
2019-06-10T18:19:37.592Z,8.50
2019-06-10T18:22:07.827Z,6.50
2019-06-10T18:24:39.685Z,7.25
2019-06-10T18:27:09.886Z,9.00
2019-06-10T18:29:42.653Z,8.00
2019-06-10T18:32:13.655Z,7.00
2019-06-10T18:34:45.473Z,8.00
2019-06-10T18:37:17.425Z,7.50
2019-06-10T18:39:52.112Z,7.50
2019-06-10T18:42:23.377Z,3.50
2019-06-10T18:44:54.384Z,7.75
2019-06-10T18:47:25.155Z,7.00
2019-06-10T18:49:56.328Z,8.40
2019-06-10T18:52:26.826Z,7.00
2019-06-10T18:55:08.381Z,8.00
2019-06-10T18:57:39.278Z,7.50
2019-06-10T19:00:14.922Z,8.00
2019-06-10T19:02:47.129Z,7.75
2019-06-10T19:05:22.433Z,8.60
2019-06-10T19:07:52.964Z,6.00
2019-06-10T19:10:23.313Z,7.50
2019-06-10T19:12:53.491Z,6.25
2019-06-10T19:15:24.871Z,3.75
2019-06-10T19:17:55.590Z,7.00
2019-06-10T19:20:27.164Z,5.00
2019-06-10T19:22:57.352Z,7.00
2019-06-10T19:25:27.852Z,7.00
2019-06-10T19:28:01.706Z,6.00
2019-06-10T19:30:37.079Z,5.25
2019-06-10T19:33:07.958Z,5.75
2019-06-10T19:35:38.257Z,6.25
2019-06-10T19:38:09.676Z,8.40
2019-06-10T19:40:40.034Z,7.00
2019-06-10T19:43:12.273Z,6.00
2019-06-10T19:45:42.920Z,7.00
2019-06-10T19:48:13.135Z,7.00
2019-06-10T19:50:49.752Z,8.00
2019-06-10T19:53:15.233Z,6.75
2019-06-10T19:55:46.119Z,8.25
2019-06-10T19:58:16.418Z,9.25
2019-06-10T20:00:51.025Z,6.60
2019-06-10T20:03:18.799Z,8.50
2019-06-10T20:05:49.366Z,7.75
2019-06-10T20:08:19.588Z,9.25
2019-06-10T20:10:53.218Z,7.00
2019-06-10T20:13:25.404Z,8.60
2019-06-10T20:15:56.359Z,9.80
2019-06-10T20:18:26.902Z,8.75
2019-06-10T20:20:58.323Z,7.25
2019-06-10T20:23:44.571Z,11.00
2019-06-10T20:26:14.692Z,10.00
2019-06-10T20:28:46.704Z,9.60
2019-06-10T20:31:16.784Z,11.75
2019-06-10T20:33:47.867Z,10.60
2019-06-10T20:36:23.310Z,11.75
2019-06-10T20:38:53.351Z,12.20
2019-06-10T20:41:25.155Z,15.00
2019-06-10T20:43:56.671Z,12.80
2019-06-10T20:46:27.426Z,11.00
2019-06-10T20:48:57.632Z,12.00
2019-06-10T20:51:27.810Z,12.25
2019-06-10T20:53:58.072Z,15.00
2019-06-10T20:56:28.278Z,15.40
2019-06-10T20:58:58.466Z,18.00
2019-06-10T21:01:28.999Z,18.25
2019-06-10T21:03:59.257Z,17.50
2019-06-10T21:06:29.449Z,10.25
2019-06-10T21:08:59.708Z,14.00
2019-06-10T21:11:32.223Z,13.00
2019-06-10T21:14:04.133Z,11.50
2019-06-10T21:16:35.743Z,16.40
2019-06-10T21:19:06.886Z,18.25
2019-06-10T21:21:37.469Z,17.50
2019-06-10T21:24:08.013Z,17.00
2019-06-10T21:26:38.649Z,16.50
2019-06-10T21:29:12.754Z,22.25
2019-06-10T21:31:45.301Z,19.00
2019-06-10T21:34:14.903Z,20.75
2019-06-10T21:36:45.284Z,13.75
2019-06-10T21:39:15.648Z,11.25
2019-06-10T21:41:47.090Z,10.25
2019-06-10T21:44:17.754Z,6.00
2019-06-10T21:46:48.780Z,9.75
2019-06-10T21:49:20.227Z,6.25
2019-06-10T21:51:54.302Z,5.40
2019-06-10T21:54:22.540Z,6.00
2019-06-10T21:56:55.392Z,7.00
2019-06-10T21:59:24.854Z,7.00
2019-06-10T22:01:57.522Z,5.80
2019-06-10T22:04:28.529Z,6.00
2019-06-10T22:06:59.440Z,8.75
2019-06-10T22:09:30.226Z,6.25
2019-06-10T22:12:02.916Z,6.25
2019-06-10T22:14:38.156Z,7.25
2019-06-10T22:17:14.807Z,7.25
2019-06-10T22:19:46.579Z,6.00
2019-06-10T22:22:17.620Z,7.50
2019-06-10T22:24:53.622Z,7.25
2019-06-10T22:27:24.228Z,8.20
2019-06-10T22:29:56.932Z,6.75
2019-06-10T22:32:27.252Z,6.00
2019-06-10T22:34:57.616Z,7.00
2019-06-10T22:37:27.803Z,7.00
2019-06-10T22:39:59.523Z,5.00
2019-06-10T22:42:32.773Z,7.40
2019-06-10T22:45:04.175Z,4.50
2019-06-10T22:47:34.903Z,6.00
2019-06-10T22:50:07.610Z,4.00
2019-06-10T22:52:37.473Z,4.25
2019-06-10T22:55:09.566Z,5.00
2019-06-10T22:57:43.748Z,5.00
2019-06-10T23:00:13.104Z,5.00
2019-06-10T23:02:43.939Z,5.25
2019-06-10T23:05:17.225Z,5.25
2019-06-10T23:07:46.086Z,4.75
2019-06-10T23:10:16.265Z,5.50
2019-06-10T23:12:46.485Z,5.25
2019-06-10T23:15:16.661Z,4.50
2019-06-10T23:17:46.875Z,6.75
2019-06-10T23:20:17.078Z,5.00
2019-06-10T23:22:47.254Z,4.25
2019-06-10T23:25:17.462Z,6.00
2019-06-10T23:27:47.655Z,5.25
2019-06-10T23:30:17.902Z,5.00
2019-06-10T23:32:48.066Z,4.50
2019-06-10T23:35:18.279Z,3.40
2019-06-10T23:37:48.491Z,5.25
2019-06-10T23:40:18.706Z,6.00
2019-06-10T23:42:48.947Z,3.50
2019-06-10T23:45:19.158Z,4.00
2019-06-10T23:47:52.212Z,4.00
2019-06-10T23:50:22.561Z,4.00
2019-06-10T23:52:55.884Z,4.50
2019-06-10T23:55:24.905Z,4.00
2019-06-10T23:57:56.205Z,2.25
